sensor_id;sensor_type;location;lat;lon;timestamp;P1;durP1;ratioP1;P2;durP2;ratioP2
22531;SDS011;11432;46.924;7.114;2024-03-22T00:01:08;3.40;;;2.10;;
22531;SDS011;11432;46.924;7.114;2024-03-22T00:03:34;2.92;;;2.13;;
22531;SDS011;11432;46.924;7.114;2024-03-22T00:06:00;3.92;;;1.90;;
22531;SDS011;11432;46.924;7.114;2024-03-22T00:08:25;3.03;;;2.05;;
22531;SDS011;11432;46.924;7.114;2024-03-22T00:10:51;4.60;;;1.95;;
22531;SDS011;11432;46.924;7.114;2024-03-22T00:13:16;2.63;;;1.73;;
22531;SDS011;11432;46.924;7.114;2024-03-22T00:15:42;3.20;;;1.80;;
22531;SDS011;11432;46.924;7.114;2024-03-22T00:18:09;3.95;;;1.75;;
22531;SDS011;11432;46.924;7.114;2024-03-22T00:20:35;3.70;;;2.25;;
22531;SDS011;11432;46.924;7.114;2024-03-22T00:23:00;3.85;;;1.70;;
22531;SDS011;11432;46.924;7.114;2024-03-22T00:25:26;4.35;;;2.03;;
22531;SDS011;11432;46.924;7.114;2024-03-22T00:27:51;4.65;;;1.50;;
22531;SDS011;11432;46.924;7.114;2024-03-22T00:30:17;2.80;;;2.03;;
22531;SDS011;11432;46.924;7.114;2024-03-22T00:32:43;3.00;;;1.50;;
22531;SDS011;11432;46.924;7.114;2024-03-22T00:35:09;2.17;;;1.42;;
22531;SDS011;11432;46.924;7.114;2024-03-22T00:37:35;3.78;;;1.75;;
22531;SDS011;11432;46.924;7.114;2024-03-22T00:40:01;3.88;;;1.75;;
22531;SDS011;11432;46.924;7.114;2024-03-22T00:42:27;2.40;;;1.70;;
22531;SDS011;11432;46.924;7.114;2024-03-22T00:44:52;3.08;;;1.67;;
22531;SDS011;11432;46.924;7.114;2024-03-22T00:47:20;5.25;;;1.88;;
22531;SDS011;11432;46.924;7.114;2024-03-22T00:49:45;2.38;;;1.40;;
22531;SDS011;11432;46.924;7.114;2024-03-22T00:52:11;2.92;;;1.70;;
22531;SDS011;11432;46.924;7.114;2024-03-22T00:54:36;2.53;;;1.52;;
22531;SDS011;11432;46.924;7.114;2024-03-22T00:57:04;2.40;;;1.55;;
22531;SDS011;11432;46.924;7.114;2024-03-22T00:59:30;4.15;;;2.00;;
22531;SDS011;11432;46.924;7.114;2024-03-22T01:01:55;7.47;;;1.60;;
22531;SDS011;11432;46.924;7.114;2024-03-22T01:04:21;2.72;;;1.70;;
22531;SDS011;11432;46.924;7.114;2024-03-22T01:06:46;9.43;;;2.15;;
22531;SDS011;11432;46.924;7.114;2024-03-22T01:09:12;4.97;;;2.00;;
22531;SDS011;11432;46.924;7.114;2024-03-22T01:11:37;3.42;;;1.70;;
22531;SDS011;11432;46.924;7.114;2024-03-22T01:14:03;4.65;;;1.80;;
22531;SDS011;11432;46.924;7.114;2024-03-22T01:16:28;5.32;;;1.80;;
22531;SDS011;11432;46.924;7.114;2024-03-22T01:18:54;3.33;;;1.83;;
22531;SDS011;11432;46.924;7.114;2024-03-22T01:21:20;6.93;;;2.03;;
22531;SDS011;11432;46.924;7.114;2024-03-22T01:23:50;4.07;;;1.92;;
22531;SDS011;11432;46.924;7.114;2024-03-22T01:26:18;3.28;;;1.73;;
22531;SDS011;11432;46.924;7.114;2024-03-22T01:28:44;5.45;;;1.80;;
22531;SDS011;11432;46.924;7.114;2024-03-22T01:31:11;4.72;;;1.85;;
22531;SDS011;11432;46.924;7.114;2024-03-22T01:33:36;5.90;;;1.55;;
22531;SDS011;11432;46.924;7.114;2024-03-22T01:36:02;3.10;;;1.70;;
22531;SDS011;11432;46.924;7.114;2024-03-22T01:38:29;5.55;;;1.63;;
22531;SDS011;11432;46.924;7.114;2024-03-22T01:40:54;4.10;;;1.85;;
22531;SDS011;11432;46.924;7.114;2024-03-22T01:43:20;3.70;;;1.73;;
22531;SDS011;11432;46.924;7.114;2024-03-22T01:45:46;2.03;;;1.20;;
22531;SDS011;11432;46.924;7.114;2024-03-22T01:48:11;4.10;;;1.95;;
22531;SDS011;11432;46.924;7.114;2024-03-22T01:50:37;3.53;;;1.58;;
22531;SDS011;11432;46.924;7.114;2024-03-22T01:53:03;3.55;;;1.55;;
22531;SDS011;11432;46.924;7.114;2024-03-22T01:55:29;2.17;;;1.65;;
22531;SDS011;11432;46.924;7.114;2024-03-22T01:57:56;4.68;;;1.65;;
22531;SDS011;11432;46.924;7.114;2024-03-22T02:00:22;6.68;;;1.75;;
22531;SDS011;11432;46.924;7.114;2024-03-22T02:02:47;6.07;;;2.00;;
22531;SDS011;11432;46.924;7.114;2024-03-22T02:05:16;2.17;;;1.42;;
22531;SDS011;11432;46.924;7.114;2024-03-22T02:07:46;4.13;;;1.48;;
22531;SDS011;11432;46.924;7.114;2024-03-22T02:10:12;4.30;;;1.50;;
22531;SDS011;11432;46.924;7.114;2024-03-22T02:12:39;4.05;;;1.55;;
22531;SDS011;11432;46.924;7.114;2024-03-22T02:15:05;2.85;;;1.40;;
22531;SDS011;11432;46.924;7.114;2024-03-22T02:17:32;2.92;;;1.30;;
22531;SDS011;11432;46.924;7.114;2024-03-22T02:19:58;1.88;;;1.35;;
22531;SDS011;11432;46.924;7.114;2024-03-22T02:22:24;3.25;;;1.83;;
22531;SDS011;11432;46.924;7.114;2024-03-22T02:24:50;2.97;;;1.45;;
22531;SDS011;11432;46.924;7.114;2024-03-22T02:27:16;4.13;;;1.45;;
22531;SDS011;11432;46.924;7.114;2024-03-22T02:29:42;3.70;;;1.40;;
22531;SDS011;11432;46.924;7.114;2024-03-22T02:32:07;4.72;;;1.60;;
22531;SDS011;11432;46.924;7.114;2024-03-22T02:34:34;2.70;;;1.35;;
22531;SDS011;11432;46.924;7.114;2024-03-22T02:37:00;2.90;;;1.55;;
22531;SDS011;11432;46.924;7.114;2024-03-22T02:39:25;2.30;;;1.30;;
22531;SDS011;11432;46.924;7.114;2024-03-22T02:41:51;6.00;;;1.80;;
22531;SDS011;11432;46.924;7.114;2024-03-22T02:44:16;2.05;;;1.50;;
22531;SDS011;11432;46.924;7.114;2024-03-22T02:46:42;4.32;;;1.58;;
22531;SDS011;11432;46.924;7.114;2024-03-22T02:49:07;3.78;;;1.50;;
22531;SDS011;11432;46.924;7.114;2024-03-22T02:51:33;3.38;;;1.55;;
22531;SDS011;11432;46.924;7.114;2024-03-22T02:53:59;2.70;;;1.42;;
22531;SDS011;11432;46.924;7.114;2024-03-22T02:56:24;3.00;;;1.35;;
22531;SDS011;11432;46.924;7.114;2024-03-22T02:58:50;3.53;;;1.38;;
22531;SDS011;11432;46.924;7.114;2024-03-22T03:01:15;2.70;;;1.50;;
22531;SDS011;11432;46.924;7.114;2024-03-22T03:03:41;3.15;;;1.67;;
22531;SDS011;11432;46.924;7.114;2024-03-22T03:06:06;2.75;;;1.23;;
22531;SDS011;11432;46.924;7.114;2024-03-22T03:08:33;2.40;;;1.33;;
22531;SDS011;11432;46.924;7.114;2024-03-22T03:10:59;3.10;;;1.42;;
22531;SDS011;11432;46.924;7.114;2024-03-22T03:13:24;2.65;;;1.40;;
22531;SDS011;11432;46.924;7.114;2024-03-22T03:15:51;5.03;;;1.33;;
22531;SDS011;11432;46.924;7.114;2024-03-22T03:18:16;5.22;;;1.65;;
22531;SDS011;11432;46.924;7.114;2024-03-22T03:20:42;3.25;;;1.42;;
22531;SDS011;11432;46.924;7.114;2024-03-22T03:23:08;2.17;;;1.33;;
22531;SDS011;11432;46.924;7.114;2024-03-22T03:25:34;3.25;;;1.70;;
22531;SDS011;11432;46.924;7.114;2024-03-22T03:27:59;2.05;;;1.50;;
22531;SDS011;11432;46.924;7.114;2024-03-22T03:30:25;4.38;;;1.60;;
22531;SDS011;11432;46.924;7.114;2024-03-22T03:32:51;2.88;;;1.60;;
22531;SDS011;11432;46.924;7.114;2024-03-22T03:35:16;3.80;;;2.00;;
22531;SDS011;11432;46.924;7.114;2024-03-22T03:37:42;4.22;;;1.70;;
22531;SDS011;11432;46.924;7.114;2024-03-22T03:40:08;3.65;;;1.85;;
22531;SDS011;11432;46.924;7.114;2024-03-22T03:42:33;3.17;;;1.70;;
22531;SDS011;11432;46.924;7.114;2024-03-22T03:44:59;3.92;;;1.58;;
22531;SDS011;11432;46.924;7.114;2024-03-22T03:47:24;2.75;;;1.33;;
22531;SDS011;11432;46.924;7.114;2024-03-22T03:49:50;7.07;;;1.75;;
22531;SDS011;11432;46.924;7.114;2024-03-22T03:52:17;4.38;;;2.00;;
22531;SDS011;11432;46.924;7.114;2024-03-22T03:54:43;3.75;;;1.80;;
22531;SDS011;11432;46.924;7.114;2024-03-22T03:57:08;2.60;;;1.55;;
22531;SDS011;11432;46.924;7.114;2024-03-22T03:59:34;3.08;;;1.65;;
22531;SDS011;11432;46.924;7.114;2024-03-22T04:01:59;3.13;;;1.75;;
22531;SDS011;11432;46.924;7.114;2024-03-22T04:04:25;2.22;;;1.42;;
22531;SDS011;11432;46.924;7.114;2024-03-22T04:06:50;2.40;;;1.50;;
22531;SDS011;11432;46.924;7.114;2024-03-22T04:09:16;4.45;;;1.60;;
22531;SDS011;11432;46.924;7.114;2024-03-22T04:11:42;2.53;;;1.45;;
22531;SDS011;11432;46.924;7.114;2024-03-22T04:14:09;5.20;;;1.70;;
22531;SDS011;11432;46.924;7.114;2024-03-22T04:16:34;4.63;;;2.35;;
22531;SDS011;11432;46.924;7.114;2024-03-22T04:19:00;3.35;;;1.52;;
22531;SDS011;11432;46.924;7.114;2024-03-22T04:21:25;5.05;;;1.70;;
22531;SDS011;11432;46.924;7.114;2024-03-22T04:23:51;2.70;;;1.58;;
22531;SDS011;11432;46.924;7.114;2024-03-22T04:26:16;7.07;;;1.80;;
22531;SDS011;11432;46.924;7.114;2024-03-22T04:28:42;4.03;;;1.80;;
22531;SDS011;11432;46.924;7.114;2024-03-22T04:31:08;3.65;;;1.92;;
22531;SDS011;11432;46.924;7.114;2024-03-22T04:33:34;2.92;;;1.42;;
22531;SDS011;11432;46.924;7.114;2024-03-22T04:36:01;3.50;;;1.48;;
22531;SDS011;11432;46.924;7.114;2024-03-22T04:38:28;2.50;;;1.75;;
22531;SDS011;11432;46.924;7.114;2024-03-22T04:40:54;3.95;;;1.42;;
22531;SDS011;11432;46.924;7.114;2024-03-22T04:43:21;3.15;;;1.80;;
22531;SDS011;11432;46.924;7.114;2024-03-22T04:45:50;2.15;;;1.35;;
22531;SDS011;11432;46.924;7.114;2024-03-22T04:48:17;4.72;;;1.52;;
22531;SDS011;11432;46.924;7.114;2024-03-22T04:50:44;3.45;;;1.40;;
22531;SDS011;11432;46.924;7.114;2024-03-22T04:53:10;5.40;;;1.55;;
22531;SDS011;11432;46.924;7.114;2024-03-22T04:55:35;3.13;;;1.58;;
22531;SDS011;11432;46.924;7.114;2024-03-22T04:58:02;4.60;;;1.65;;
22531;SDS011;11432;46.924;7.114;2024-03-22T05:00:28;5.40;;;1.70;;
22531;SDS011;11432;46.924;7.114;2024-03-22T05:02:54;2.17;;;1.40;;
22531;SDS011;11432;46.924;7.114;2024-03-22T05:05:20;4.95;;;1.65;;
22531;SDS011;11432;46.924;7.114;2024-03-22T05:07:45;2.50;;;1.50;;
22531;SDS011;11432;46.924;7.114;2024-03-22T05:10:11;2.70;;;1.40;;
22531;SDS011;11432;46.924;7.114;2024-03-22T05:12:37;4.57;;;1.83;;
22531;SDS011;11432;46.924;7.114;2024-03-22T05:15:03;6.32;;;2.35;;
22531;SDS011;11432;46.924;7.114;2024-03-22T05:17:30;4.20;;;1.88;;
22531;SDS011;11432;46.924;7.114;2024-03-22T05:19:57;5.03;;;1.90;;
22531;SDS011;11432;46.924;7.114;2024-03-22T05:22:27;2.53;;;1.88;;
22531;SDS011;11432;46.924;7.114;2024-03-22T05:24:52;4.15;;;1.90;;
22531;SDS011;11432;46.924;7.114;2024-03-22T05:27:18;3.47;;;1.85;;
22531;SDS011;11432;46.924;7.114;2024-03-22T05:29:44;4.40;;;2.05;;
22531;SDS011;11432;46.924;7.114;2024-03-22T05:32:09;2.88;;;1.92;;
22531;SDS011;11432;46.924;7.114;2024-03-22T05:34:35;3.47;;;1.70;;
22531;SDS011;11432;46.924;7.114;2024-03-22T05:37:01;3.42;;;1.90;;
22531;SDS011;11432;46.924;7.114;2024-03-22T05:39:27;5.40;;;1.60;;
22531;SDS011;11432;46.924;7.114;2024-03-22T05:41:53;2.58;;;1.60;;
22531;SDS011;11432;46.924;7.114;2024-03-22T05:44:19;2.20;;;1.58;;
22531;SDS011;11432;46.924;7.114;2024-03-22T05:46:46;3.88;;;1.30;;
22531;SDS011;11432;46.924;7.114;2024-03-22T05:49:12;3.50;;;1.50;;
22531;SDS011;11432;46.924;7.114;2024-03-22T05:51:37;5.43;;;1.58;;
22531;SDS011;11432;46.924;7.114;2024-03-22T05:54:03;3.50;;;1.75;;
22531;SDS011;11432;46.924;7.114;2024-03-22T05:56:29;2.85;;;1.38;;
22531;SDS011;11432;46.924;7.114;2024-03-22T05:58:54;2.53;;;1.50;;
22531;SDS011;11432;46.924;7.114;2024-03-22T06:01:20;3.67;;;1.60;;
22531;SDS011;11432;46.924;7.114;2024-03-22T06:03:45;4.80;;;1.15;;
22531;SDS011;11432;46.924;7.114;2024-03-22T06:06:11;2.53;;;1.55;;
22531;SDS011;11432;46.924;7.114;2024-03-22T06:08:37;7.05;;;1.85;;
22531;SDS011;11432;46.924;7.114;2024-03-22T06:11:04;4.55;;;2.40;;
22531;SDS011;11432;46.924;7.114;2024-03-22T06:13:32;6.03;;;2.53;;
22531;SDS011;11432;46.924;7.114;2024-03-22T06:15:58;4.22;;;2.80;;
22531;SDS011;11432;46.924;7.114;2024-03-22T06:18:23;6.40;;;2.63;;
22531;SDS011;11432;46.924;7.114;2024-03-22T06:20:49;6.63;;;2.78;;
22531;SDS011;11432;46.924;7.114;2024-03-22T06:23:15;6.05;;;2.60;;
22531;SDS011;11432;46.924;7.114;2024-03-22T06:25:40;10.15;;;2.92;;
22531;SDS011;11432;46.924;7.114;2024-03-22T06:28:06;8.82;;;3.00;;
22531;SDS011;11432;46.924;7.114;2024-03-22T06:30:31;8.93;;;2.65;;
22531;SDS011;11432;46.924;7.114;2024-03-22T06:32:57;6.07;;;2.25;;
22531;SDS011;11432;46.924;7.114;2024-03-22T06:35:23;2.90;;;1.95;;
22531;SDS011;11432;46.924;7.114;2024-03-22T06:37:48;4.47;;;1.80;;
22531;SDS011;11432;46.924;7.114;2024-03-22T06:40:14;5.70;;;1.50;;
22531;SDS011;11432;46.924;7.114;2024-03-22T06:42:41;4.15;;;1.63;;
22531;SDS011;11432;46.924;7.114;2024-03-22T06:45:07;3.40;;;1.30;;
22531;SDS011;11432;46.924;7.114;2024-03-22T06:47:33;3.45;;;1.55;;
22531;SDS011;11432;46.924;7.114;2024-03-22T06:49:58;3.78;;;1.73;;
22531;SDS011;11432;46.924;7.114;2024-03-22T06:52:24;3.60;;;1.50;;
22531;SDS011;11432;46.924;7.114;2024-03-22T06:54:49;3.95;;;1.90;;
22531;SDS011;11432;46.924;7.114;2024-03-22T06:57:18;5.38;;;1.88;;
22531;SDS011;11432;46.924;7.114;2024-03-22T06:59:44;4.75;;;1.88;;
22531;SDS011;11432;46.924;7.114;2024-03-22T07:02:10;3.55;;;1.80;;
22531;SDS011;11432;46.924;7.114;2024-03-22T07:04:37;5.05;;;2.60;;
22531;SDS011;11432;46.924;7.114;2024-03-22T07:07:04;2.88;;;1.80;;
22531;SDS011;11432;46.924;7.114;2024-03-22T07:09:32;8.60;;;2.22;;
22531;SDS011;11432;46.924;7.114;2024-03-22T07:11:58;5.10;;;2.05;;
22531;SDS011;11432;46.924;7.114;2024-03-22T07:14:24;5.53;;;2.25;;
22531;SDS011;11432;46.924;7.114;2024-03-22T07:16:50;6.03;;;1.92;;
22531;SDS011;11432;46.924;7.114;2024-03-22T07:19:18;5.05;;;2.40;;
22531;SDS011;11432;46.924;7.114;2024-03-22T07:21:45;4.78;;;2.22;;
22531;SDS011;11432;46.924;7.114;2024-03-22T07:24:11;3.85;;;1.90;;
22531;SDS011;11432;46.924;7.114;2024-03-22T07:26:37;3.10;;;2.05;;
22531;SDS011;11432;46.924;7.114;2024-03-22T07:29:03;3.95;;;1.92;;
22531;SDS011;11432;46.924;7.114;2024-03-22T07:31:29;3.83;;;2.00;;
22531;SDS011;11432;46.924;7.114;2024-03-22T07:33:55;3.38;;;2.00;;
22531;SDS011;11432;46.924;7.114;2024-03-22T07:36:21;4.75;;;1.90;;
22531;SDS011;11432;46.924;7.114;2024-03-22T07:38:47;5.45;;;1.90;;
22531;SDS011;11432;46.924;7.114;2024-03-22T07:41:16;6.05;;;2.05;;
22531;SDS011;11432;46.924;7.114;2024-03-22T07:43:42;5.93;;;1.92;;
22531;SDS011;11432;46.924;7.114;2024-03-22T07:46:08;4.85;;;2.25;;
22531;SDS011;11432;46.924;7.114;2024-03-22T07:48:35;4.72;;;2.40;;
22531;SDS011;11432;46.924;7.114;2024-03-22T07:51:01;3.47;;;2.28;;
22531;SDS011;11432;46.924;7.114;2024-03-22T07:53:27;3.85;;;2.17;;
22531;SDS011;11432;46.924;7.114;2024-03-22T07:55:54;3.92;;;2.00;;
22531;SDS011;11432;46.924;7.114;2024-03-22T07:58:20;2.95;;;2.00;;
22531;SDS011;11432;46.924;7.114;2024-03-22T08:00:46;4.28;;;1.88;;
22531;SDS011;11432;46.924;7.114;2024-03-22T08:03:13;4.25;;;2.20;;
22531;SDS011;11432;46.924;7.114;2024-03-22T08:05:40;2.53;;;2.13;;
22531;SDS011;11432;46.924;7.114;2024-03-22T08:08:06;8.13;;;2.80;;
22531;SDS011;11432;46.924;7.114;2024-03-22T08:10:32;8.07;;;2.22;;
22531;SDS011;11432;46.924;7.114;2024-03-22T08:12:58;4.55;;;2.38;;
22531;SDS011;11432;46.924;7.114;2024-03-22T08:15:25;5.80;;;2.20;;
22531;SDS011;11432;46.924;7.114;2024-03-22T08:17:51;5.30;;;2.20;;
22531;SDS011;11432;46.924;7.114;2024-03-22T08:20:17;4.15;;;2.72;;
22531;SDS011;11432;46.924;7.114;2024-03-22T08:22:43;4.13;;;2.75;;
22531;SDS011;11432;46.924;7.114;2024-03-22T08:25:09;8.15;;;2.80;;
22531;SDS011;11432;46.924;7.114;2024-03-22T08:27:35;7.35;;;2.30;;
22531;SDS011;11432;46.924;7.114;2024-03-22T08:30:01;7.90;;;2.42;;
22531;SDS011;11432;46.924;7.114;2024-03-22T08:32:28;4.90;;;2.60;;
22531;SDS011;11432;46.924;7.114;2024-03-22T08:34:54;7.45;;;2.88;;
22531;SDS011;11432;46.924;7.114;2024-03-22T08:37:21;6.10;;;2.38;;
22531;SDS011;11432;46.924;7.114;2024-03-22T08:39:47;8.45;;;2.47;;
22531;SDS011;11432;46.924;7.114;2024-03-22T08:42:13;4.43;;;2.00;;
22531;SDS011;11432;46.924;7.114;2024-03-22T08:44:38;5.80;;;2.10;;
22531;SDS011;11432;46.924;7.114;2024-03-22T08:47:05;4.13;;;2.00;;
22531;SDS011;11432;46.924;7.114;2024-03-22T08:49:31;3.70;;;1.80;;
22531;SDS011;11432;46.924;7.114;2024-03-22T08:51:57;3.33;;;2.03;;
22531;SDS011;11432;46.924;7.114;2024-03-22T08:54:23;3.45;;;1.77;;
22531;SDS011;11432;46.924;7.114;2024-03-22T08:56:49;6.13;;;2.30;;
22531;SDS011;11432;46.924;7.114;2024-03-22T08:59:15;3.90;;;2.03;;
22531;SDS011;11432;46.924;7.114;2024-03-22T09:01:41;4.65;;;2.00;;
22531;SDS011;11432;46.924;7.114;2024-03-22T09:04:07;4.50;;;2.38;;
22531;SDS011;11432;46.924;7.114;2024-03-22T09:06:33;4.97;;;2.53;;
22531;SDS011;11432;46.924;7.114;2024-03-22T09:08:59;8.02;;;2.70;;
22531;SDS011;11432;46.924;7.114;2024-03-22T09:11:25;5.60;;;2.60;;
22531;SDS011;11432;46.924;7.114;2024-03-22T09:13:52;6.30;;;2.33;;
22531;SDS011;11432;46.924;7.114;2024-03-22T09:16:19;5.18;;;2.58;;
22531;SDS011;11432;46.924;7.114;2024-03-22T09:18:45;5.57;;;2.60;;
22531;SDS011;11432;46.924;7.114;2024-03-22T09:21:11;3.72;;;2.53;;
22531;SDS011;11432;46.924;7.114;2024-03-22T09:23:37;6.05;;;2.42;;
22531;SDS011;11432;46.924;7.114;2024-03-22T09:26:02;3.88;;;2.22;;
22531;SDS011;11432;46.924;7.114;2024-03-22T09:28:29;3.63;;;2.28;;
22531;SDS011;11432;46.924;7.114;2024-03-22T09:30:55;7.10;;;2.70;;
22531;SDS011;11432;46.924;7.114;2024-03-22T09:33:21;5.00;;;2.42;;
22531;SDS011;11432;46.924;7.114;2024-03-22T09:35:47;4.28;;;2.17;;
22531;SDS011;11432;46.924;7.114;2024-03-22T09:38:13;3.95;;;2.22;;
22531;SDS011;11432;46.924;7.114;2024-03-22T09:40:40;4.80;;;2.15;;
22531;SDS011;11432;46.924;7.114;2024-03-22T09:43:07;3.40;;;2.30;;
22531;SDS011;11432;46.924;7.114;2024-03-22T09:45:33;2.85;;;2.22;;
22531;SDS011;11432;46.924;7.114;2024-03-22T09:47:59;5.35;;;2.40;;
22531;SDS011;11432;46.924;7.114;2024-03-22T09:50:26;4.00;;;2.13;;
22531;SDS011;11432;46.924;7.114;2024-03-22T09:52:52;4.30;;;2.20;;
22531;SDS011;11432;46.924;7.114;2024-03-22T09:55:24;7.45;;;2.45;;
22531;SDS011;11432;46.924;7.114;2024-03-22T09:57:50;4.72;;;2.50;;
22531;SDS011;11432;46.924;7.114;2024-03-22T10:00:18;4.53;;;2.47;;
22531;SDS011;11432;46.924;7.114;2024-03-22T10:02:47;5.15;;;2.67;;
22531;SDS011;11432;46.924;7.114;2024-03-22T10:05:14;6.35;;;2.30;;
22531;SDS011;11432;46.924;7.114;2024-03-22T10:07:40;5.60;;;2.50;;
22531;SDS011;11432;46.924;7.114;2024-03-22T10:10:06;4.57;;;2.83;;
22531;SDS011;11432;46.924;7.114;2024-03-22T10:12:33;4.55;;;2.55;;
22531;SDS011;11432;46.924;7.114;2024-03-22T10:14:59;5.75;;;2.50;;
22531;SDS011;11432;46.924;7.114;2024-03-22T10:17:28;4.75;;;2.45;;
22531;SDS011;11432;46.924;7.114;2024-03-22T10:19:55;4.38;;;2.03;;
22531;SDS011;11432;46.924;7.114;2024-03-22T10:22:21;7.15;;;3.05;;
22531;SDS011;11432;46.924;7.114;2024-03-22T10:24:49;3.95;;;2.20;;
22531;SDS011;11432;46.924;7.114;2024-03-22T10:27:16;6.13;;;2.60;;
22531;SDS011;11432;46.924;7.114;2024-03-22T10:29:43;3.95;;;2.45;;
22531;SDS011;11432;46.924;7.114;2024-03-22T10:32:09;3.58;;;2.40;;
22531;SDS011;11432;46.924;7.114;2024-03-22T10:34:35;2.85;;;2.25;;
22531;SDS011;11432;46.924;7.114;2024-03-22T10:37:02;3.47;;;2.13;;
22531;SDS011;11432;46.924;7.114;2024-03-22T10:39:29;4.70;;;2.72;;
22531;SDS011;11432;46.924;7.114;2024-03-22T10:41:56;4.47;;;2.13;;
22531;SDS011;11432;46.924;7.114;2024-03-22T10:44:22;3.95;;;2.55;;
22531;SDS011;11432;46.924;7.114;2024-03-22T10:46:48;6.13;;;2.80;;
22531;SDS011;11432;46.924;7.114;2024-03-22T10:49:17;5.18;;;2.50;;
22531;SDS011;11432;46.924;7.114;2024-03-22T10:51:44;9.93;;;2.95;;
22531;SDS011;11432;46.924;7.114;2024-03-22T10:54:13;5.28;;;2.40;;
22531;SDS011;11432;46.924;7.114;2024-03-22T10:56:39;5.78;;;2.60;;
22531;SDS011;11432;46.924;7.114;2024-03-22T10:59:06;4.35;;;2.95;;
22531;SDS011;11432;46.924;7.114;2024-03-22T11:01:32;4.50;;;2.80;;
22531;SDS011;11432;46.924;7.114;2024-03-22T11:04:03;4.82;;;2.92;;
22531;SDS011;11432;46.924;7.114;2024-03-22T11:06:31;5.05;;;2.65;;
22531;SDS011;11432;46.924;7.114;2024-03-22T11:08:59;4.20;;;3.10;;
22531;SDS011;11432;46.924;7.114;2024-03-22T11:11:27;4.83;;;3.00;;
22531;SDS011;11432;46.924;7.114;2024-03-22T11:13:54;4.83;;;2.57;;
22531;SDS011;11432;46.924;7.114;2024-03-22T11:16:21;2.70;;;2.15;;
22531;SDS011;11432;46.924;7.114;2024-03-22T11:18:47;4.28;;;2.20;;
22531;SDS011;11432;46.924;7.114;2024-03-22T11:21:14;4.10;;;2.50;;
22531;SDS011;11432;46.924;7.114;2024-03-22T11:23:40;6.03;;;2.60;;
22531;SDS011;11432;46.924;7.114;2024-03-22T11:26:06;7.63;;;2.50;;
22531;SDS011;11432;46.924;7.114;2024-03-22T11:28:33;3.50;;;2.15;;
22531;SDS011;11432;46.924;7.114;2024-03-22T11:30:59;4.70;;;2.60;;
22531;SDS011;11432;46.924;7.114;2024-03-22T11:33:25;4.72;;;2.00;;
22531;SDS011;11432;46.924;7.114;2024-03-22T11:35:52;7.25;;;2.15;;
22531;SDS011;11432;46.924;7.114;2024-03-22T11:38:18;4.07;;;2.45;;
22531;SDS011;11432;46.924;7.114;2024-03-22T11:40:44;3.25;;;2.35;;
22531;SDS011;11432;46.924;7.114;2024-03-22T11:43:10;4.57;;;2.80;;
22531;SDS011;11432;46.924;7.114;2024-03-22T11:45:39;4.32;;;2.38;;
22531;SDS011;11432;46.924;7.114;2024-03-22T11:48:05;5.15;;;2.42;;
22531;SDS011;11432;46.924;7.114;2024-03-22T11:50:31;7.25;;;2.47;;
22531;SDS011;11432;46.924;7.114;2024-03-22T11:52:57;5.22;;;2.03;;
22531;SDS011;11432;46.924;7.114;2024-03-22T11:55:26;3.65;;;2.03;;
22531;SDS011;11432;46.924;7.114;2024-03-22T12:00:18;3.10;;;1.90;;
22531;SDS011;11432;46.924;7.114;2024-03-22T12:02:45;5.22;;;2.00;;
22531;SDS011;11432;46.924;7.114;2024-03-22T12:05:11;3.47;;;2.00;;
22531;SDS011;11432;46.924;7.114;2024-03-22T12:07:37;7.13;;;2.17;;
22531;SDS011;11432;46.924;7.114;2024-03-22T12:10:03;3.53;;;1.73;;
22531;SDS011;11432;46.924;7.114;2024-03-22T12:12:30;4.45;;;2.03;;
22531;SDS011;11432;46.924;7.114;2024-03-22T12:14:56;3.22;;;2.08;;
22531;SDS011;11432;46.924;7.114;2024-03-22T12:17:21;3.22;;;1.60;;
22531;SDS011;11432;46.924;7.114;2024-03-22T12:19:47;3.08;;;1.80;;
22531;SDS011;11432;46.924;7.114;2024-03-22T12:22:13;2.67;;;1.77;;
22531;SDS011;11432;46.924;7.114;2024-03-22T12:24:39;2.88;;;1.58;;
22531;SDS011;11432;46.924;7.114;2024-03-22T12:27:05;4.55;;;2.10;;
22531;SDS011;11432;46.924;7.114;2024-03-22T12:29:32;2.72;;;1.70;;
22531;SDS011;11432;46.924;7.114;2024-03-22T12:31:58;3.22;;;1.73;;
22531;SDS011;11432;46.924;7.114;2024-03-22T12:34:31;6.85;;;1.73;;
22531;SDS011;11432;46.924;7.114;2024-03-22T12:36:58;3.50;;;1.88;;
22531;SDS011;11432;46.924;7.114;2024-03-22T12:39:24;3.25;;;1.83;;
22531;SDS011;11432;46.924;7.114;2024-03-22T12:41:50;3.63;;;1.27;;
22531;SDS011;11432;46.924;7.114;2024-03-22T12:44:16;2.88;;;1.23;;
22531;SDS011;11432;46.924;7.114;2024-03-22T12:46:42;2.22;;;1.63;;
22531;SDS011;11432;46.924;7.114;2024-03-22T12:49:10;2.13;;;1.50;;
22531;SDS011;11432;46.924;7.114;2024-03-22T12:51:36;1.55;;;1.20;;
22531;SDS011;11432;46.924;7.114;2024-03-22T12:54:02;6.22;;;1.70;;
22531;SDS011;11432;46.924;7.114;2024-03-22T12:56:29;1.90;;;0.88;;
22531;SDS011;11432;46.924;7.114;2024-03-22T12:58:55;2.63;;;0.82;;
22531;SDS011;11432;46.924;7.114;2024-03-22T13:01:21;1.98;;;0.77;;
22531;SDS011;11432;46.924;7.114;2024-03-22T13:03:47;0.88;;;0.70;;
22531;SDS011;11432;46.924;7.114;2024-03-22T13:06:13;2.42;;;1.17;;
22531;SDS011;11432;46.924;7.114;2024-03-22T13:08:39;1.65;;;0.70;;
22531;SDS011;11432;46.924;7.114;2024-03-22T13:11:05;0.98;;;0.80;;
22531;SDS011;11432;46.924;7.114;2024-03-22T13:13:34;4.88;;;1.20;;
22531;SDS011;11432;46.924;7.114;2024-03-22T13:16:00;1.17;;;0.75;;
22531;SDS011;11432;46.924;7.114;2024-03-22T13:18:27;3.08;;;1.50;;
22531;SDS011;11432;46.924;7.114;2024-03-22T13:20:53;4.13;;;0.95;;
22531;SDS011;11432;46.924;7.114;2024-03-22T13:23:19;2.65;;;0.90;;
22531;SDS011;11432;46.924;7.114;2024-03-22T13:25:45;4.80;;;1.15;;
22531;SDS011;11432;46.924;7.114;2024-03-22T13:28:11;4.00;;;0.98;;
22531;SDS011;11432;46.924;7.114;2024-03-22T13:30:37;5.03;;;1.00;;
22531;SDS011;11432;46.924;7.114;2024-03-22T13:33:03;1.73;;;0.73;;
22531;SDS011;11432;46.924;7.114;2024-03-22T13:35:30;1.67;;;1.00;;
22531;SDS011;11432;46.924;7.114;2024-03-22T13:37:58;3.38;;;1.00;;
22531;SDS011;11432;46.924;7.114;2024-03-22T13:40:25;2.00;;;0.80;;
22531;SDS011;11432;46.924;7.114;2024-03-22T13:42:54;1.95;;;0.90;;
22531;SDS011;11432;46.924;7.114;2024-03-22T13:47:47;1.85;;;0.82;;
22531;SDS011;11432;46.924;7.114;2024-03-22T13:50:13;2.20;;;1.02;;
22531;SDS011;11432;46.924;7.114;2024-03-22T13:52:39;2.00;;;0.82;;
22531;SDS011;11432;46.924;7.114;2024-03-22T13:55:05;2.30;;;0.90;;
22531;SDS011;11432;46.924;7.114;2024-03-22T13:57:31;1.20;;;0.85;;
22531;SDS011;11432;46.924;7.114;2024-03-22T13:59:57;3.13;;;0.90;;
22531;SDS011;11432;46.924;7.114;2024-03-22T14:02:23;2.95;;;0.90;;
22531;SDS011;11432;46.924;7.114;2024-03-22T14:04:49;2.05;;;1.05;;
22531;SDS011;11432;46.924;7.114;2024-03-22T14:07:15;1.73;;;0.68;;
22531;SDS011;11432;46.924;7.114;2024-03-22T14:09:41;1.85;;;0.90;;
22531;SDS011;11432;46.924;7.114;2024-03-22T14:12:08;3.00;;;1.13;;
22531;SDS011;11432;46.924;7.114;2024-03-22T14:14:34;1.65;;;1.08;;
22531;SDS011;11432;46.924;7.114;2024-03-22T14:17:00;3.08;;;0.90;;
22531;SDS011;11432;46.924;7.114;2024-03-22T14:19:26;3.38;;;1.00;;
22531;SDS011;11432;46.924;7.114;2024-03-22T14:21:52;1.25;;;0.90;;
22531;SDS011;11432;46.924;7.114;2024-03-22T14:24:18;7.28;;;1.20;;
22531;SDS011;11432;46.924;7.114;2024-03-22T14:26:44;2.88;;;0.80;;
22531;SDS011;11432;46.924;7.114;2024-03-22T14:29:10;4.80;;;1.55;;
22531;SDS011;11432;46.924;7.114;2024-03-22T14:31:37;4.80;;;1.85;;
22531;SDS011;11432;46.924;7.114;2024-03-22T14:34:03;1.88;;;1.27;;
22531;SDS011;11432;46.924;7.114;2024-03-22T14:36:30;5.13;;;1.40;;
22531;SDS011;11432;46.924;7.114;2024-03-22T14:38:56;2.13;;;1.20;;
22531;SDS011;11432;46.924;7.114;2024-03-22T14:41:22;1.88;;;1.02;;
22531;SDS011;11432;46.924;7.114;2024-03-22T14:43:48;2.15;;;1.42;;
22531;SDS011;11432;46.924;7.114;2024-03-22T14:46:14;3.38;;;1.48;;